Time;durP1;ratioP1;P1;durP2;ratioP2;P2;SDS_P1;SDS_P2;PMS_P1;PMS_P2;Temp;Humidity;BMP_temperature;BMP_pressure;BME280_temperature;BME280_humidity;BME280_pressure;Samples;Min_cycle;Max_cycle;Signal;HPM_P1;HPM_P2
2023/05/05 00:01:31;;;;;;;0.00;0.00;;;18.10;99.90;;;;;;5052187;28;20017;-74
2023/05/05 00:03:57;;;;;;;0.00;0.00;;;18.20;99.90;;;;;;5054566;28;20037;-73
2023/05/05 00:06:23;;;;;;;0.00;0.00;;;18.10;99.90;;;;;;5035075;28;20029;-74
2023/05/05 00:08:49;;;;;;;0.00;0.00;;;18.30;99.90;;;;;;5054863;28;20331;-74
2023/05/05 00:11:15;;;;;;;0.00;0.00;;;18.30;99.90;;;;;;5054859;28;20106;-74
2023/05/05 00:13:41;;;;;;;0.00;0.00;;;17.90;99.90;;;;;;5033370;28;20034;-73
2023/05/05 00:16:07;;;;;;;0.10;0.10;;;17.40;99.90;;;;;;5046327;28;20402;-72
2023/05/05 00:18:32;;;;;;;0.00;0.00;;;17.40;99.90;;;;;;5054335;28;20025;-73
2023/05/05 00:20:58;;;;;;;0.00;0.00;;;17.70;99.90;;;;;;5054981;28;20409;-74
2023/05/05 00:23:24;;;;;;;0.00;0.00;;;17.80;99.90;;;;;;5054714;28;20033;-73
2023/05/05 00:25:50;;;;;;;0.22;0.22;;;17.90;99.90;;;;;;5033348;28;20450;-73
2023/05/05 00:28:16;;;;;;;0.10;0.10;;;17.30;99.90;;;;;;5048336;28;20052;-72
2023/05/05 00:30:42;;;;;;;0.00;0.00;;;17.20;99.90;;;;;;5033324;28;20059;-72
2023/05/05 00:33:09;;;;;;;0.43;0.43;;;17.30;99.90;;;;;;5045965;28;20385;-73
2023/05/05 00:35:34;;;;;;;0.00;0.00;;;17.30;99.90;;;;;;5053392;28;20104;-74
2023/05/05 00:38:01;;;;;;;0.00;0.00;;;16.70;99.90;;;;;;5033110;28;20113;-73
2023/05/05 00:40:27;;;;;;;0.08;0.08;;;16.80;99.90;;;;;;5050223;28;20392;-73
2023/05/05 00:42:53;;;;;;;0.05;0.05;;;17.00;99.90;;;;;;5033130;28;20021;-73
2023/05/05 00:45:19;;;;;;;0.10;0.10;;;16.80;99.90;;;;;;5048131;28;20033;-74
2023/05/05 00:47:52;;;;;;;2.47;1.88;;;16.60;99.90;;;;;;5034555;28;20029;-69
2023/05/05 00:50:28;;;;;;;0.10;0.10;;;16.40;99.90;;;;;;5032706;28;20032;-69
2023/05/05 00:52:57;;;;;;;0.00;0.00;;;16.10;99.90;;;;;;5036047;28;20025;-69
2023/05/05 00:55:23;;;;;;;0.00;0.00;;;16.10;99.90;;;;;;5032770;28;20018;-70
2023/05/05 00:57:49;;;;;;;0.08;0.08;;;16.20;99.90;;;;;;5047627;28;20060;-69
2023/05/05 01:00:16;;;;;;;0.10;0.10;;;16.20;99.90;;;;;;5032632;28;20029;-70
2023/05/05 01:02:43;;;;;;;0.00;0.00;;;16.00;99.90;;;;;;5046751;28;20517;-69
2023/05/05 01:05:10;;;;;;;0.17;0.17;;;15.80;99.90;;;;;;5053624;28;20025;-71
2023/05/05 01:07:42;;;;;;;0.38;0.38;;;16.00;99.90;;;;;;5053800;28;20061;-69
2023/05/05 01:10:14;;;;;;;0.10;0.10;;;15.70;99.90;;;;;;5053536;28;20066;-69
2023/05/05 01:12:50;;;;;;;0.00;0.00;;;15.40;99.90;;;;;;5053549;28;20028;-70
2023/05/05 01:15:42;;;;;;;0.10;0.10;;;15.50;99.90;;;;;;5053483;28;20032;-69
2023/05/05 01:18:37;;;;;;;4.03;1.75;;;15.50;99.90;;;;;;5032057;28;20043;-69
2023/05/05 01:21:14;;;;;;;0.20;0.20;;;16.00;99.90;;;;;;5046697;28;20033;-70
2023/05/05 01:23:58;;;;;;;0.35;0.35;;;15.90;99.90;;;;;;5053468;28;20044;-69
2023/05/05 01:26:41;;;;;;;0.08;0.08;;;15.90;99.90;;;;;;5053402;28;20033;-69
2023/05/05 01:29:34;;;;;;;0.00;0.00;;;15.90;99.90;;;;;;5015711;28;20025;-70
2023/05/05 01:32:26;;;;;;;0.20;0.20;;;16.10;99.90;;;;;;5033754;28;20033;-72
2023/05/05 01:35:04;;;;;;;0.10;0.10;;;16.10;99.90;;;;;;5029205;28;20104;-70
2023/05/05 01:37:36;;;;;;;0.10;0.10;;;16.00;99.90;;;;;;5053042;28;20025;-70
2023/05/05 01:40:06;;;;;;;1.08;0.70;;;15.70;99.90;;;;;;5040476;28;20038;-70
2023/05/05 01:42:35;;;;;;;0.20;0.20;;;15.70;99.90;;;;;;5084424;28;20079;-69
2023/05/05 01:45:07;;;;;;;0.20;0.20;;;15.50;99.90;;;;;;5052710;28;20029;-70
2023/05/05 01:47:34;;;;;;;0.13;0.13;;;15.40;99.90;;;;;;5051531;28;20027;-69
2023/05/05 01:50:02;;;;;;;0.20;0.20;;;15.20;99.90;;;;;;5052932;28;20079;-69
2023/05/05 01:52:29;;;;;;;0.10;0.10;;;15.10;99.90;;;;;;5048105;28;20029;-70
2023/05/05 01:54:57;;;;;;;1.92;0.77;;;14.90;99.90;;;;;;5063575;28;20025;-70
2023/05/05 01:57:25;;;;;;;0.10;0.10;;;14.90;99.90;;;;;;5067553;28;20036;-69
2023/05/05 01:59:52;;;;;;;0.43;0.43;;;15.10;99.90;;;;;;5065652;28;20028;-70
2023/05/05 02:02:21;;;;;;;0.10;0.10;;;15.40;99.90;;;;;;5065682;28;20024;-69
2023/05/05 02:04:48;;;;;;;0.20;0.20;;;15.70;99.90;;;;;;5060568;28;20506;-70
2023/05/05 02:07:15;;;;;;;0.25;0.25;;;15.50;99.90;;;;;;5069779;28;20017;-69
2023/05/05 02:09:43;;;;;;;0.08;0.08;;;15.50;99.90;;;;;;5071630;28;20021;-70
2023/05/05 02:12:09;;;;;;;0.20;0.20;;;15.70;99.90;;;;;;5069631;28;20092;-70
2023/05/05 02:14:36;;;;;;;0.40;0.40;;;15.30;99.90;;;;;;5052451;28;20029;-70
2023/05/05 02:17:03;;;;;;;0.10;0.10;;;15.50;99.90;;;;;;5067113;28;20074;-69
2023/05/05 02:19:33;;;;;;;0.50;0.50;;;15.60;99.90;;;;;;5088005;28;20120;-70
2023/05/05 02:21:59;;;;;;;0.10;0.10;;;15.50;99.90;;;;;;5060989;28;20025;-69
2023/05/05 02:24:25;;;;;;;0.10;0.10;;;15.60;99.90;;;;;;5071264;28;20028;-70
2023/05/05 02:26:53;;;;;;;0.10;0.10;;;15.60;99.90;;;;;;5072847;28;20101;-70
2023/05/05 02:29:27;;;;;;;0.77;0.70;;;15.70;99.90;;;;;;5067310;28;20025;-69
2023/05/05 02:31:57;;;;;;;0.50;0.50;;;15.70;99.90;;;;;;5061689;28;20115;-70
2023/05/05 02:34:28;;;;;;;2.30;0.55;;;15.60;99.90;;;;;;5071117;28;20028;-69
2023/05/05 02:36:59;;;;;;;1.75;0.80;;;15.60;99.90;;;;;;5071188;28;20020;-68
2023/05/05 02:39:34;;;;;;;0.10;0.10;;;15.50;99.90;;;;;;5071155;28;20455;-70
2023/05/05 02:42:07;;;;;;;0.00;0.00;;;15.30;99.90;;;;;;5070969;28;20086;-70
2023/05/05 02:44:34;;;;;;;0.20;0.20;;;15.30;99.90;;;;;;5071959;28;20103;-70
2023/05/05 02:47:02;;;;;;;0.10;0.10;;;15.30;99.90;;;;;;5070941;28;20085;-70
2023/05/05 02:49:29;;;;;;;0.10;0.10;;;15.50;99.90;;;;;;5071028;28;20056;-70
2023/05/05 02:51:59;;;;;;;0.38;0.38;;;15.40;99.90;;;;;;5070871;28;20025;-71
2023/05/05 02:54:32;;;;;;;0.10;0.10;;;15.00;99.90;;;;;;5070855;28;20044;-70
2023/05/05 02:56:59;;;;;;;0.10;0.10;;;15.00;99.90;;;;;;5070857;28;20020;-71
2023/05/05 02:59:52;;;;;;;0.10;0.10;;;15.00;99.90;;;;;;5074603;28;20123;-70
2023/05/05 03:02:48;;;;;;;0.20;0.20;;;15.00;99.90;;;;;;5058536;28;20028;-70
2023/05/05 03:05:21;;;;;;;0.10;0.10;;;15.10;99.90;;;;;;5060384;28;20028;-71
2023/05/05 03:08:00;;;;;;;0.10;0.10;;;15.10;99.90;;;;;;5074809;28;20469;-70
2023/05/05 03:10:30;;;;;;;0.03;0.03;;;15.10;99.90;;;;;;5074435;28;20028;-69
2023/05/05 03:13:01;;;;;;;4.00;1.85;;;15.20;99.90;;;;;;5074107;28;20032;-70
2023/05/05 03:15:46;;;;;;;1.00;0.85;;;15.00;99.90;;;;;;5074707;28;20024;-70
2023/05/05 03:18:16;;;;;;;0.10;0.10;;;14.90;99.90;;;;;;5074343;28;20025;-70
2023/05/05 03:20:46;;;;;;;;;;;14.90;99.90;;;;;;5074856;28;20027;-70
2023/05/05 03:23:17;;;;;;;0.10;0.10;;;14.80;99.90;;;;;;5108044;28;19916;-70
2023/05/05 03:25:45;;;;;;;1.73;1.10;;;14.70;99.90;;;;;;5057851;28;20119;-70
2023/05/05 03:28:17;;;;;;;0.10;0.10;;;14.50;99.90;;;;;;5073900;28;20020;-70
2023/05/05 03:30:43;;;;;;;0.30;0.30;;;14.20;99.90;;;;;;5075482;28;20019;-71
2023/05/05 03:33:10;;;;;;;0.10;0.10;;;14.20;99.90;;;;;;5074097;28;20063;-70
2023/05/05 03:35:37;;;;;;;0.10;0.10;;;14.30;99.90;;;;;;5074117;28;20036;-70
2023/05/05 03:38:05;;;;;;;0.10;0.10;;;14.30;99.90;;;;;;5057517;28;20090;-70
2023/05/05 03:40:32;;;;;;;0.10;0.10;;;14.70;99.90;;;;;;5074049;28;20086;-70
2023/05/05 03:42:57;;;;;;;4.05;0.55;;;14.90;99.90;;;;;;5073400;28;20420;-70
2023/05/05 03:45:24;;;;;;;0.10;0.10;;;14.90;99.90;;;;;;5074040;28;20032;-70
2023/05/05 03:47:50;;;;;;;0.45;0.17;;;14.80;99.90;;;;;;5074044;28;20115;-73
2023/05/05 03:50:16;;;;;;;0.10;0.10;;;15.10;99.90;;;;;;5074996;28;20117;-70
2023/05/05 03:52:42;;;;;;;0.10;0.10;;;14.90;99.90;;;;;;5073532;28;20055;-71
2023/05/05 03:55:08;;;;;;;0.10;0.10;;;14.80;99.90;;;;;;5073718;28;20481;-73
2023/05/05 03:57:34;;;;;;;0.03;0.03;;;14.70;99.90;;;;;;5073446;28;20115;-71
2023/05/05 04:00:00;;;;;;;0.80;0.80;;;14.80;99.90;;;;;;5073684;28;20174;-72
2023/05/05 04:02:26;;;;;;;0.10;0.10;;;14.70;99.90;;;;;;5056822;28;20106;-70
2023/05/05 04:04:52;;;;;;;0.00;0.00;;;14.90;99.90;;;;;;5059314;28;20090;-73
2023/05/05 04:07:18;;;;;;;0.10;0.10;;;15.00;99.90;;;;;;5073651;28;20021;-73
2023/05/05 04:09:44;;;;;;;0.10;0.10;;;15.10;99.90;;;;;;5071877;28;20032;-72
2023/05/05 04:12:11;;;;;;;0.00;0.00;;;15.30;99.90;;;;;;5072518;28;20025;-73
2023/05/05 04:14:37;;;;;;;0.10;0.10;;;15.30;99.90;;;;;;5073179;28;20032;-73
2023/05/05 04:17:05;;;;;;;0.03;0.03;;;15.10;99.90;;;;;;5073114;28;20115;-73
2023/05/05 04:19:31;;;;;;;0.00;0.00;;;15.10;99.90;;;;;;5073182;28;20089;-70
2023/05/05 04:21:58;;;;;;;0.05;0.05;;;15.30;99.90;;;;;;5073214;28;20028;-72
2023/05/05 04:24:24;;;;;;;0.00;0.00;;;15.30;99.90;;;;;;5073081;28;20485;-72
2023/05/05 04:26:52;;;;;;;0.00;0.00;;;15.10;99.90;;;;;;5073182;28;20058;-72
2023/05/05 04:29:19;;;;;;;0.00;0.00;;;15.20;99.90;;;;;;5073077;28;20031;-72
2023/05/05 04:31:45;;;;;;;0.10;0.10;;;15.20;99.90;;;;;;5073290;28;20021;-74
2023/05/05 04:34:11;;;;;;;0.10;0.10;;;15.20;99.90;;;;;;5056498;28;20024;-69
2023/05/05 04:36:37;;;;;;;0.10;0.10;;;15.30;99.90;;;;;;5073245;28;20021;-70
2023/05/05 04:39:05;;;;;;;0.00;0.00;;;15.10;99.90;;;;;;5072403;28;20446;-69
2023/05/05 04:41:31;;;;;;;0.05;0.05;;;15.10;99.90;;;;;;5073082;28;20021;-69
2023/05/05 04:43:58;;;;;;;0.20;0.20;;;15.20;99.90;;;;;;5072944;28;20028;-70
2023/05/05 04:46:25;;;;;;;0.10;0.10;;;15.30;99.90;;;;;;5072793;28;20121;-70
2023/05/05 04:48:51;;;;;;;0.00;0.00;;;15.30;99.90;;;;;;5072832;28;20465;-69
2023/05/05 04:51:17;;;;;;;0.25;0.25;;;15.30;99.90;;;;;;5072628;28;20075;-69
2023/05/05 04:53:43;;;;;;;0.10;0.10;;;15.40;99.90;;;;;;5072482;28;20056;-70
2023/05/05 04:56:09;;;;;;;0.20;0.20;;;15.20;99.90;;;;;;5072530;28;20105;-70
2023/05/05 04:58:35;;;;;;;0.10;0.10;;;15.30;99.90;;;;;;5074012;28;20043;-69
2023/05/05 05:01:02;;;;;;;0.30;0.30;;;15.30;99.90;;;;;;5073517;28;20100;-69
2023/05/05 05:03:27;;;;;;;1.65;0.45;;;14.80;99.90;;;;;;5070272;28;20775;-69
2023/05/05 05:05:53;;;;;;;2.85;2.55;;;14.90;99.90;;;;;;5063419;28;20043;-69
2023/05/05 05:08:19;;;;;;;0.10;0.10;;;14.80;99.90;;;;;;5071931;28;20047;-69
2023/05/05 05:10:45;;;;;;;0.05;0.05;;;14.90;99.90;;;;;;5072309;28;20028;-71
2023/05/05 05:13:11;;;;;;;0.15;0.15;;;14.90;99.90;;;;;;5072194;28;20025;-70
2023/05/05 05:15:37;;;;;;;0.17;0.17;;;15.10;99.90;;;;;;5073401;28;20032;-70
2023/05/05 05:18:04;;;;;;;8.77;2.67;;;15.10;99.90;;;;;;5072309;28;20044;-71
2023/05/05 05:20:30;;;;;;;2.17;1.20;;;15.10;99.90;;;;;;5071422;28;20043;-69
2023/05/05 05:22:56;;;;;;;0.10;0.10;;;15.10;99.90;;;;;;5055269;28;20052;-70
2023/05/05 05:25:23;;;;;;;1.55;1.45;;;15.20;99.90;;;;;;5071760;28;20047;-72
2023/05/05 05:27:49;;;;;;;0.10;0.10;;;15.10;99.90;;;;;;5072138;28;20024;-70
2023/05/05 05:30:16;;;;;;;1.27;0.65;;;15.40;99.90;;;;;;5071819;28;20060;-70
2023/05/05 05:32:42;;;;;;;0.20;0.20;;;15.30;99.90;;;;;;5067199;28;20083;-72
2023/05/05 05:35:08;;;;;;;0.20;0.20;;;15.00;99.90;;;;;;5052940;28;20032;-70
2023/05/05 05:37:34;;;;;;;0.03;0.03;;;15.00;99.90;;;;;;5083445;28;20128;-69
2023/05/05 05:40:01;;;;;;;0.08;0.08;;;15.30;99.90;;;;;;5056087;28;20413;-69
2023/05/05 05:42:31;;;;;;;0.10;0.10;;;15.30;99.90;;;;;;5050708;28;20021;-69
2023/05/05 05:44:57;;;;;;;2.80;2.22;;;15.30;99.90;;;;;;5058485;28;20028;-68
2023/05/05 05:47:25;;;;;;;0.20;0.20;;;15.30;99.90;;;;;;5063331;28;20033;-68
2023/05/05 05:49:51;;;;;;;0.13;0.13;;;15.20;99.90;;;;;;5057560;28;20021;-69
2023/05/05 05:52:18;;;;;;;1.63;1.42;;;15.10;99.90;;;;;;5054842;28;20057;-69
2023/05/05 05:54:44;;;;;;;2.63;1.77;;;15.30;99.90;;;;;;5052084;28;20517;-69
2023/05/05 05:57:10;;;;;;;0.00;0.00;;;15.20;99.90;;;;;;5059693;28;20029;-70
2023/05/05 05:59:36;;;;;;;0.08;0.08;;;15.30;99.90;;;;;;5060190;28;20120;-69
2023/05/05 06:02:03;;;;;;;1.27;1.27;;;15.40;99.90;;;;;;5062498;28;20017;-69
2023/05/05 06:04:30;;;;;;;0.17;0.17;;;15.50;99.90;;;;;;5062337;28;20031;-70
2023/05/05 06:06:56;;;;;;;0.00;0.00;;;15.50;99.90;;;;;;5041108;28;20044;-70
2023/05/05 06:09:22;;;;;;;0.03;0.03;;;15.60;99.90;;;;;;5069833;28;20440;-70
2023/05/05 06:11:48;;;;;;;0.00;0.00;;;15.70;99.90;;;;;;5070264;28;20024;-70
2023/05/05 06:14:14;;;;;;;0.32;0.32;;;15.90;99.90;;;;;;5068850;28;20090;-73
2023/05/05 06:16:41;;;;;;;0.10;0.10;;;16.30;99.90;;;;;;5071846;28;20082;-73
2023/05/05 06:19:10;;;;;;;0.63;0.63;;;16.40;99.90;;;;;;5070139;28;20037;-73
2023/05/05 06:21:37;;;;;;;0.00;0.00;;;16.30;99.90;;;;;;5070127;28;20086;-74
2023/05/05 06:24:03;;;;;;;1.48;0.40;;;16.10;99.90;;;;;;5065809;28;20477;-71
2023/05/05 06:26:30;;;;;;;0.05;0.05;;;16.10;99.90;;;;;;5053870;28;20119;-74
2023/05/05 06:28:56;;;;;;;0.00;0.00;;;16.30;99.90;;;;;;5051802;28;20120;-74
2023/05/05 06:31:22;;;;;;;0.20;0.20;;;16.40;99.90;;;;;;5051365;28;20025;-74
2023/05/05 06:33:48;;;;;;;6.93;2.05;;;16.40;99.90;;;;;;5065960;28;20078;-74
2023/05/05 06:36:13;;;;;;;0.32;0.32;;;16.80;99.90;;;;;;5058073;28;20025;-75
2023/05/05 06:38:39;;;;;;;2.72;1.77;;;16.80;99.90;;;;;;5056837;28;20485;-73
2023/05/05 06:41:05;;;;;;;0.75;0.75;;;16.80;99.90;;;;;;5058924;28;20028;-73
2023/05/05 06:43:31;;;;;;;0.20;0.20;;;16.60;99.90;;;;;;5056156;28;20029;-74
2023/05/05 06:45:59;;;;;;;0.13;0.13;;;16.40;99.90;;;;;;5044855;28;20107;-74
2023/05/05 06:48:25;;;;;;;3.63;1.40;;;16.40;99.90;;;;;;5062159;28;20448;-73
2023/05/05 06:50:51;;;;;;;0.95;0.95;;;16.60;99.90;;;;;;5060529;28;20029;-73
2023/05/05 06:53:17;;;;;;;1.63;1.50;;;16.70;99.90;;;;;;5057604;28;20021;-73
2023/05/05 06:55:45;;;;;;;15.93;3.85;;;16.90;99.90;;;;;;5055304;28;20350;-72
2023/05/05 06:58:11;;;;;;;5.80;3.08;;;17.10;99.90;;;;;;5062114;28;20023;-73
2023/05/05 07:00:40;;;;;;;6.72;4.15;;;17.10;99.90;;;;;;5062423;28;20036;-72
2023/05/05 07:03:05;;;;;;;25.95;10.88;;;17.00;99.90;;;;;;5070114;28;20380;-73
2023/05/05 07:05:32;;;;;;;13.93;6.78;;;17.10;99.90;;;;;;5058917;28;20036;-74
2023/05/05 07:07:58;;;;;;;0.73;0.73;;;17.40;99.90;;;;;;5071211;28;20020;-74
2023/05/05 07:10:24;;;;;;;10.18;4.97;;;17.50;99.90;;;;;;5074962;28;20500;-74
2023/05/05 07:12:51;;;;;;;5.20;1.95;;;17.60;99.90;;;;;;5075072;28;20025;-73
2023/05/05 07:15:17;;;;;;;7.47;3.70;;;17.80;99.90;;;;;;5074943;28;20035;-74
2023/05/05 07:17:43;;;;;;;4.28;3.47;;;18.20;99.90;;;;;;5071881;28;20036;-73
2023/05/05 07:20:10;;;;;;;6.55;0.98;;;18.10;99.90;;;;;;5041750;28;20037;-74
2023/05/05 07:22:36;;;;;;;0.50;0.50;;;17.70;99.90;;;;;;5067153;28;20025;-74
2023/05/05 07:25:02;;;;;;;7.28;3.45;;;17.80;99.90;;;;;;5055376;28;20470;-74
2023/05/05 07:27:30;;;;;;;4.28;2.22;;;18.10;99.90;;;;;;5055382;28;20025;-74
2023/05/05 07:29:55;;;;;;;0.65;0.65;;;17.80;99.90;;;;;;5040744;28;20465;-72
2023/05/05 07:32:21;;;;;;;0.00;0.00;;;17.80;99.90;;;;;;5058809;28;20073;-74
2023/05/05 07:34:47;;;;;;;0.50;0.28;;;18.10;99.90;;;;;;5044940;28;20039;-74
2023/05/05 07:37:13;;;;;;;0.32;0.22;;;18.20;99.90;;;;;;5056864;28;20053;-74
2023/05/05 07:39:38;;;;;;;0.30;0.30;;;18.30;99.90;;;;;;5054989;28;20044;-70
2023/05/05 07:42:06;;;;;;;0.52;0.52;;;18.20;99.90;;;;;;5057977;28;20540;-70
2023/05/05 07:44:32;;;;;;;0.38;0.38;;;18.20;99.90;;;;;;5058023;28;20150;-70
2023/05/05 07:46:58;;;;;;;1.48;0.95;;;18.00;99.90;;;;;;5068839;28;20043;-70
2023/05/05 07:49:24;;;;;;;4.55;1.52;;;18.10;99.90;;;;;;5063427;28;20017;-70
2023/05/05 07:51:50;;;;;;;0.05;0.05;;;18.00;99.90;;;;;;5074859;28;20060;-69
2023/05/05 07:54:16;;;;;;;2.00;0.50;;;18.00;99.90;;;;;;5056737;28;20481;-70
2023/05/05 07:56:43;;;;;;;0.00;0.00;;;18.00;99.90;;;;;;5055137;28;20029;-70
2023/05/05 07:59:10;;;;;;;0.10;0.10;;;18.00;99.90;;;;;;5063174;28;20041;-70
2023/05/05 08:01:36;;;;;;;3.25;0.73;;;18.00;99.90;;;;;;5062479;28;20017;-69
2023/05/05 08:04:01;;;;;;;0.00;0.00;;;18.20;99.90;;;;;;5065584;28;20117;-74
2023/05/05 08:06:30;;;;;;;0.00;0.00;;;17.90;99.90;;;;;;5061664;28;20103;-73
2023/05/05 08:08:58;;;;;;;0.00;0.00;;;18.40;99.90;;;;;;5061313;28;20029;-72
2023/05/05 08:11:25;;;;;;;0.30;0.30;;;18.50;99.90;;;;;;5074081;28;20363;-69
2023/05/05 08:13:51;;;;;;;0.80;0.65;;;18.50;99.90;;;;;;5055699;28;20431;-70
2023/05/05 08:16:17;;;;;;;0.08;0.08;;;18.30;99.90;;;;;;5073165;28;20066;-70
2023/05/05 08:18:43;;;;;;;1.23;0.63;;;18.20;99.90;;;;;;5057465;28;20029;-70
2023/05/05 08:21:10;;;;;;;0.13;0.10;;;18.10;99.90;;;;;;5063263;28;20443;-70
2023/05/05 08:23:37;;;;;;;0.15;0.15;;;18.00;99.90;;;;;;5068841;28;20120;-68
2023/05/05 08:26:08;;;;;;;0.10;0.10;;;18.10;99.90;;;;;;5062288;28;20060;-70
2023/05/05 08:28:37;;;;;;;1.60;0.60;;;18.10;99.90;;;;;;5044478;28;20036;-69
2023/05/05 08:31:04;;;;;;;0.00;0.00;;;18.30;99.90;;;;;;5054416;28;20051;-70
2023/05/05 08:33:30;;;;;;;8.98;0.88;;;18.30;99.90;;;;;;5065728;28;20071;-72
2023/05/05 08:35:56;;;;;;;1.55;0.45;;;18.20;99.90;;;;;;5058010;28;20021;-68
2023/05/05 08:38:22;;;;;;;0.10;0.10;;;18.30;99.90;;;;;;5063772;28;20036;-72
2023/05/05 08:40:50;;;;;;;0.47;0.25;;;18.30;99.90;;;;;;5055376;28;20028;-71
2023/05/05 08:43:21;;;;;;;0.05;0.05;;;17.90;99.90;;;;;;5053812;28;20028;-72
2023/05/05 08:45:50;;;;;;;0.13;0.13;;;17.70;99.90;;;;;;5064873;28;20107;-72
2023/05/05 08:48:19;;;;;;;1.35;1.25;;;17.30;99.90;;;;;;5064627;28;20046;-73
2023/05/05 08:50:50;;;;;;;2.63;0.68;;;17.30;99.90;;;;;;5062537;28;20518;-74
2023/05/05 08:53:16;;;;;;;0.10;0.10;;;17.00;99.90;;;;;;5055154;28;20112;-74
2023/05/05 08:55:53;;;;;;;0.28;0.28;;;17.10;99.90;;;;;;5052306;28;20033;-72
2023/05/05 08:58:21;;;;;;;0.00;0.00;;;17.40;99.90;;;;;;5065331;28;20029;-74
2023/05/05 09:00:48;;;;;;;0.22;0.22;;;17.40;99.90;;;;;;5063395;28;20170;-74
2023/05/05 09:03:15;;;;;;;1.58;0.80;;;17.20;99.90;;;;;;5066791;28;20060;-73
2023/05/05 09:05:42;;;;;;;2.13;1.92;;;17.30;99.90;;;;;;5063638;28;20074;-73
2023/05/05 09:08:10;;;;;;;0.00;0.00;;;17.30;99.90;;;;;;5072339;28;20008;-73
2023/05/05 09:10:39;;;;;;;0.17;0.17;;;17.40;99.90;;;;;;5043939;28;20170;-71
2023/05/05 09:13:06;;;;;;;0.40;0.40;;;17.30;99.90;;;;;;5067048;28;20362;-75
2023/05/05 09:15:32;;;;;;;0.00;0.00;;;17.30;99.90;;;;;;5071557;28;20028;-74
2023/05/05 09:18:00;;;;;;;0.30;0.30;;;17.30;99.90;;;;;;5070371;28;20025;-74
2023/05/05 09:20:36;;;;;;;0.10;0.10;;;17.20;99.90;;;;;;5072179;28;20236;-73
2023/05/05 09:23:12;;;;;;;0.65;0.65;;;17.30;99.90;;;;;;5057858;28;20064;-74
2023/05/05 09:25:42;;;;;;;5.13;1.83;;;17.20;99.90;;;;;;5055118;28;20529;-74
2023/05/05 09:28:15;;;;;;;0.00;0.00;;;17.20;99.90;;;;;;5059803;28;20082;-74
2023/05/05 09:30:43;;;;;;;1.25;0.22;;;17.10;99.90;;;;;;5053949;28;20029;-73
2023/05/05 09:33:09;;;;;;;6.00;1.30;;;17.10;99.90;;;;;;5060598;28;20070;-74
2023/05/05 09:35:51;;;;;;;0.45;0.45;;;16.70;99.90;;;;;;5057158;28;20550;-73
2023/05/05 09:38:18;;;;;;;0.60;0.60;;;16.20;99.90;;;;;;5059344;28;20036;-74
2023/05/05 09:40:48;;;;;;;0.38;0.38;;;15.90;99.90;;;;;;5052380;28;20110;-74
2023/05/05 09:43:19;;;;;;;0.30;0.30;;;15.60;99.90;;;;;;5053165;28;20043;-73
2023/05/05 09:45:47;;;;;;;0.10;0.10;;;15.50;99.90;;;;;;5060984;28;20029;-74
2023/05/05 09:48:27;;;;;;;0.10;0.10;;;15.50;99.90;;;;;;5060439;28;20474;-74
2023/05/05 09:50:53;;;;;;;0.00;0.00;;;15.60;99.90;;;;;;5054130;28;20021;-74
2023/05/05 09:53:20;;;;;;;0.10;0.10;;;16.00;99.90;;;;;;5054462;28;20052;-73
2023/05/05 09:55:53;;;;;;;0.00;0.00;;;16.20;99.90;;;;;;5051949;28;20028;-75
2023/05/05 09:58:30;;;;;;;0.35;0.35;;;16.50;99.90;;;;;;5059703;28;20036;-75
2023/05/05 10:00:57;;;;;;;0.10;0.10;;;16.50;99.90;;;;;;5047277;28;20029;-74
2023/05/05 10:03:24;;;;;;;0.10;0.10;;;16.60;99.90;;;;;;5066009;28;20112;-73
2023/05/05 10:05:58;;;;;;;0.00;0.00;;;16.90;99.90;;;;;;5037923;28;20024;-73
2023/05/05 10:08:32;;;;;;;0.00;0.00;;;17.10;99.90;;;;;;5057581;28;20036;-73
2023/05/05 10:11:05;;;;;;;0.00;0.00;;;17.40;99.90;;;;;;5071884;28;20043;-73
2023/05/05 10:13:35;;;;;;;0.00;0.00;;;18.20;99.90;;;;;;5071412;28;20480;-74
2023/05/05 10:16:03;;;;;;;0.00;0.00;;;18.40;99.90;;;;;;5071862;28;20033;-73
2023/05/05 10:18:30;;;;;;;0.00;0.00;;;18.40;99.90;;;;;;5061235;28;20135;-73
2023/05/05 10:21:00;;;;;;;0.00;0.00;;;19.00;99.90;;;;;;5071330;28;20039;-74
2023/05/05 10:23:48;;;;;;;0.25;0.25;;;18.80;99.90;;;;;;5053970;28;20100;-73
2023/05/05 10:26:15;;;;;;;0.25;0.25;;;18.60;99.90;;;;;;5048917;28;20025;-73
2023/05/05 10:28:52;;;;;;;0.10;0.10;;;18.40;99.90;;;;;;5051334;28;20021;-73
2023/05/05 10:31:28;;;;;;;0.00;0.00;;;18.50;99.90;;;;;;5032465;28;20033;-74
2023/05/05 10:34:06;;;;;;;2.10;0.40;;;18.60;99.90;;;;;;5048929;28;20113;-72
2023/05/05 10:36:32;;;;;;;0.10;0.10;;;18.30;99.90;;;;;;5051516;28;20036;-73
2023/05/05 10:39:00;;;;;;;0.75;0.47;;;18.50;99.90;;;;;;5051311;28;20048;-73
2023/05/05 10:41:27;;;;;;;0.13;0.13;;;18.40;99.90;;;;;;5032971;28;20048;-73
2023/05/05 10:43:57;;;;;;;0.47;0.15;;;19.00;99.90;;;;;;5052118;28;20076;-73
2023/05/05 10:46:25;;;;;;;0.08;0.08;;;19.10;99.90;;;;;;5018154;28;20385;-74
2023/05/05 10:49:07;;;;;;;0.00;0.00;;;19.20;99.90;;;;;;5034362;28;20037;-74
2023/05/05 10:51:38;;;;;;;0.00;0.00;;;19.30;99.90;;;;;;5051461;28;20508;-71
2023/05/05 10:54:23;;;;;;;;;;;19.60;99.90;;;;;;5051768;28;20036;-73
2023/05/05 10:56:50;;;;;;;0.77;0.43;;;19.10;99.90;;;;;;5051587;28;19915;-74
2023/05/05 10:59:42;;;;;;;0.28;0.28;;;18.60;99.90;;;;;;5052158;28;20045;-74
2023/05/05 11:02:25;;;;;;;0.32;0.25;;;18.50;99.90;;;;;;5038180;28;20123;-71
2023/05/05 11:05:13;;;;;;;0.22;0.22;;;18.40;99.90;;;;;;5056934;28;20079;-70
2023/05/05 11:07:38;;;;;;;0.17;0.17;;;18.50;99.90;;;;;;5062035;28;20469;-69
2023/05/05 11:10:06;;;;;;;0.15;0.15;;;18.30;99.90;;;;;;5072046;28;20034;-69
2023/05/05 11:12:52;;;;;;;1.27;0.90;;;18.40;99.90;;;;;;5071782;28;20116;-69
2023/05/05 11:15:30;;;;;;;0.10;0.10;;;18.30;99.90;;;;;;5071908;28;20542;-71
2023/05/05 11:18:03;;;;;;;7.55;1.55;;;18.30;99.90;;;;;;5071952;28;20028;-70
2023/05/05 11:20:42;;;;;;;1.40;0.65;;;17.80;99.90;;;;;;5075469;28;20038;-71
2023/05/05 11:23:08;;;;;;;2.03;0.28;;;17.60;99.90;;;;;;5075484;28;20522;-69
2023/05/05 11:25:33;;;;;;;0.40;0.40;;;16.40;99.90;;;;;;5075451;28;20029;-73
2023/05/05 11:28:16;;;;;;;0.30;0.30;;;15.70;99.90;;;;;;5057819;28;20028;-74
2023/05/05 11:30:57;;;;;;;0.43;0.32;;;15.20;99.90;;;;;;5075506;28;20078;-76
2023/05/05 11:33:30;;;;;;;0.10;0.10;;;14.60;99.90;;;;;;5075516;28;20039;-75
2023/05/05 11:35:56;;;;;;;0.28;0.28;;;14.90;99.90;;;;;;5075464;28;20419;-76
2023/05/05 11:38:40;;;;;;;0.10;0.10;;;15.20;99.90;;;;;;5075189;28;20016;-75
2023/05/05 11:41:21;;;;;;;1.08;0.20;;;15.20;99.90;;;;;;5057233;28;20035;-75
2023/05/05 11:43:46;;;;;;;0.33;0.30;;;15.60;99.90;;;;;;5075261;28;20037;-75
2023/05/05 11:46:16;;;;;;;0.10;0.10;;;15.90;99.90;;;;;;5075293;28;20039;-75
2023/05/05 11:48:51;;;;;;;0.10;0.10;;;16.10;99.90;;;;;;5075190;28;20032;-75
2023/05/05 11:51:18;;;;;;;0.00;0.00;;;16.50;99.90;;;;;;5057397;28;20029;-76
2023/05/05 11:53:45;;;;;;;3.13;0.68;;;17.00;99.90;;;;;;5057228;28;20521;-76
2023/05/05 11:56:17;;;;;;;0.10;0.10;;;17.50;99.90;;;;;;5056747;28;20025;-76
2023/05/05 11:58:47;;;;;;;0.25;0.25;;;17.90;99.90;;;;;;5057229;28;20032;-76
2023/05/05 12:01:14;;;;;;;0.10;0.10;;;17.50;99.90;;;;;;5075026;28;20067;-76
2023/05/05 12:03:40;;;;;;;0.52;0.52;;;17.40;99.90;;;;;;5048519;28;20057;-74
2023/05/05 12:06:07;;;;;;;0.47;0.15;;;17.20;99.90;;;;;;5046441;28;20033;-73
2023/05/05 12:08:37;;;;;;;0.00;0.00;;;17.80;99.90;;;;;;5054324;28;20017;-74
2023/05/05 12:11:12;;;;;;;0.25;0.20;;;18.50;99.90;;;;;;5074807;28;20500;-74
2023/05/05 12:13:38;;;;;;;0.00;0.00;;;18.50;99.90;;;;;;5075011;28;20071;-75
2023/05/05 12:16:17;;;;;;;0.40;0.40;;;19.00;99.90;;;;;;5074805;28;20059;-75
2023/05/05 12:18:42;;;;;;;0.00;0.00;;;19.80;99.90;;;;;;5074810;28;20040;-75
2023/05/05 12:21:18;;;;;;;0.00;0.00;;;19.50;99.90;;;;;;5075142;28;20024;-75
2023/05/05 12:23:44;;;;;;;0.00;0.00;;;19.80;99.90;;;;;;5073181;28;20048;-76
2023/05/05 12:26:30;;;;;;;0.45;0.30;;;19.50;99.90;;;;;;5074730;28;20021;-75
2023/05/05 12:28:57;;;;;;;0.20;0.20;;;20.30;99.90;;;;;;5074326;28;20028;-76
2023/05/05 12:31:41;;;;;;;2.03;0.90;;;20.50;99.90;;;;;;5055611;28;20150;-75
2023/05/05 12:34:09;;;;;;;0.10;0.10;;;21.10;99.90;;;;;;5074319;28;20358;-76
2023/05/05 12:36:35;;;;;;;0.40;0.40;;;20.70;99.90;;;;;;5074502;28;20126;-74
2023/05/05 12:39:05;;;;;;;0.00;0.00;;;20.50;99.90;;;;;;5073943;28;20040;-75
2023/05/05 12:41:31;;;;;;;0.55;0.38;;;20.40;99.90;;;;;;5074458;28;20100;-76
2023/05/05 12:43:58;;;;;;;0.00;0.00;;;20.50;99.90;;;;;;5056409;28;20024;-72
2023/05/05 12:46:25;;;;;;;0.00;0.00;;;20.20;99.90;;;;;;5056349;28;20388;-73
2023/05/05 12:49:03;;;;;;;1.40;0.17;;;20.20;99.90;;;;;;5074116;28;20025;-72
2023/05/05 12:51:49;;;;;;;0.45;0.43;;;19.60;99.90;;;;;;5074523;28;20024;-72
2023/05/05 12:54:15;;;;;;;0.30;0.30;;;18.90;99.90;;;;;;5053277;28;20049;-71
2023/05/05 12:56:45;;;;;;;0.10;0.10;;;18.40;99.90;;;;;;5074047;28;20024;-72
2023/05/05 12:59:20;;;;;;;0.10;0.10;;;18.70;99.90;;;;;;5073754;28;20041;-72